sensor_id;sensor_type;location;lat;lon;timestamp;P1;durP1;ratioP1;P2;durP2;ratioP2
47617;SDS011;33336;36.728;-4.414;2023-05-29T00:04:20;11.93;;;4.60;;
47617;SDS011;33336;36.728;-4.414;2023-05-29T00:09:23;12.73;;;6.00;;
47617;SDS011;33336;36.728;-4.414;2023-05-29T00:14:28;10.90;;;3.97;;
47617;SDS011;33336;36.728;-4.414;2023-05-29T00:19:31;11.50;;;5.10;;
47617;SDS011;33336;36.728;-4.414;2023-05-29T00:24:34;12.73;;;5.93;;
47617;SDS011;33336;36.728;-4.414;2023-05-29T00:29:38;10.50;;;4.57;;
47617;SDS011;33336;36.728;-4.414;2023-05-29T00:34:42;10.75;;;4.20;;
47617;SDS011;33336;36.728;-4.414;2023-05-29T00:39:45;9.32;;;4.47;;
47617;SDS011;33336;36.728;-4.414;2023-05-29T00:44:49;9.73;;;4.88;;
47617;SDS011;33336;36.728;-4.414;2023-05-29T00:49:52;6.53;;;2.75;;
47617;SDS011;33336;36.728;-4.414;2023-05-29T00:54:58;10.23;;;3.50;;
47617;SDS011;33336;36.728;-4.414;2023-05-29T01:00:05;4.97;;;2.63;;
47617;SDS011;33336;36.728;-4.414;2023-05-29T01:05:10;11.50;;;3.95;;
47617;SDS011;33336;36.728;-4.414;2023-05-29T01:10:13;6.82;;;2.78;;
47617;SDS011;33336;36.728;-4.414;2023-05-29T01:15:21;6.00;;;2.15;;
47617;SDS011;33336;36.728;-4.414;2023-05-29T01:20:34;7.45;;;3.10;;
47617;SDS011;33336;36.728;-4.414;2023-05-29T01:25:58;7.07;;;2.55;;
47617;SDS011;33336;36.728;-4.414;2023-05-29T01:31:10;9.02;;;3.38;;
47617;SDS011;33336;36.728;-4.414;2023-05-29T01:36:16;14.68;;;4.38;;
47617;SDS011;33336;36.728;-4.414;2023-05-29T01:41:18;8.30;;;2.50;;
47617;SDS011;33336;36.728;-4.414;2023-05-29T01:46:24;5.20;;;2.65;;
47617;SDS011;33336;36.728;-4.414;2023-05-29T01:51:27;7.43;;;2.90;;
47617;SDS011;33336;36.728;-4.414;2023-05-29T01:56:33;8.32;;;3.50;;
47617;SDS011;33336;36.728;-4.414;2023-05-29T02:01:39;7.10;;;2.80;;
47617;SDS011;33336;36.728;-4.414;2023-05-29T02:06:43;8.07;;;2.53;;
47617;SDS011;33336;36.728;-4.414;2023-05-29T02:11:46;10.65;;;3.25;;
47617;SDS011;33336;36.728;-4.414;2023-05-29T02:16:50;7.10;;;2.80;;
47617;SDS011;33336;36.728;-4.414;2023-05-29T02:21:53;5.43;;;2.80;;
47617;SDS011;33336;36.728;-4.414;2023-05-29T02:26:57;9.00;;;2.95;;
47617;SDS011;33336;36.728;-4.414;2023-05-29T02:32:01;7.40;;;2.90;;
47617;SDS011;33336;36.728;-4.414;2023-05-29T02:37:06;7.18;;;2.80;;
47617;SDS011;33336;36.728;-4.414;2023-05-29T02:42:08;11.60;;;4.63;;
47617;SDS011;33336;36.728;-4.414;2023-05-29T02:47:13;10.35;;;4.05;;
47617;SDS011;33336;36.728;-4.414;2023-05-29T02:52:16;6.97;;;2.85;;
47617;SDS011;33336;36.728;-4.414;2023-05-29T02:57:20;7.13;;;2.55;;
47617;SDS011;33336;36.728;-4.414;2023-05-29T03:02:24;10.93;;;2.88;;
47617;SDS011;33336;36.728;-4.414;2023-05-29T03:07:28;9.43;;;4.07;;
47617;SDS011;33336;36.728;-4.414;2023-05-29T03:12:31;9.18;;;2.67;;
47617;SDS011;33336;36.728;-4.414;2023-05-29T03:17:36;8.63;;;2.60;;
47617;SDS011;33336;36.728;-4.414;2023-05-29T03:22:39;12.88;;;3.20;;
47617;SDS011;33336;36.728;-4.414;2023-05-29T03:27:42;7.28;;;3.42;;
47617;SDS011;33336;36.728;-4.414;2023-05-29T03:32:46;20.85;;;3.70;;
47617;SDS011;33336;36.728;-4.414;2023-05-29T03:37:49;6.65;;;3.58;;
47617;SDS011;33336;36.728;-4.414;2023-05-29T03:42:53;11.05;;;3.88;;
47617;SDS011;33336;36.728;-4.414;2023-05-29T03:47:58;8.80;;;2.75;;
47617;SDS011;33336;36.728;-4.414;2023-05-29T03:53:01;7.25;;;3.08;;
47617;SDS011;33336;36.728;-4.414;2023-05-29T03:58:05;7.85;;;3.72;;
47617;SDS011;33336;36.728;-4.414;2023-05-29T04:03:09;17.80;;;7.07;;
47617;SDS011;33336;36.728;-4.414;2023-05-29T04:08:13;7.28;;;3.22;;
47617;SDS011;33336;36.728;-4.414;2023-05-29T04:13:16;8.30;;;2.95;;
47617;SDS011;33336;36.728;-4.414;2023-05-29T04:18:20;8.25;;;4.00;;
47617;SDS011;33336;36.728;-4.414;2023-05-29T04:23:23;7.53;;;2.85;;
47617;SDS011;33336;36.728;-4.414;2023-05-29T04:28:27;10.80;;;3.88;;
47617;SDS011;33336;36.728;-4.414;2023-05-29T04:33:31;7.50;;;3.33;;
47617;SDS011;33336;36.728;-4.414;2023-05-29T04:38:37;7.85;;;3.60;;
47617;SDS011;33336;36.728;-4.414;2023-05-29T04:43:40;7.95;;;3.22;;
47617;SDS011;33336;36.728;-4.414;2023-05-29T04:48:44;7.20;;;3.53;;
47617;SDS011;33336;36.728;-4.414;2023-05-29T04:53:48;11.40;;;4.65;;
47617;SDS011;33336;36.728;-4.414;2023-05-29T04:58:54;9.00;;;4.38;;
47617;SDS011;33336;36.728;-4.414;2023-05-29T05:04:00;9.45;;;3.53;;
47617;SDS011;33336;36.728;-4.414;2023-05-29T05:09:04;10.93;;;4.03;;
47617;SDS011;33336;36.728;-4.414;2023-05-29T05:14:07;8.80;;;4.05;;
47617;SDS011;33336;36.728;-4.414;2023-05-29T05:19:12;13.65;;;3.80;;
47617;SDS011;33336;36.728;-4.414;2023-05-29T05:24:15;9.80;;;3.10;;
47617;SDS011;33336;36.728;-4.414;2023-05-29T05:29:18;11.57;;;2.92;;
47617;SDS011;33336;36.728;-4.414;2023-05-29T05:34:23;14.13;;;3.78;;
47617;SDS011;33336;36.728;-4.414;2023-05-29T05:39:26;8.23;;;3.15;;
47617;SDS011;33336;36.728;-4.414;2023-05-29T05:44:28;12.15;;;3.70;;
47617;SDS011;33336;36.728;-4.414;2023-05-29T05:49:33;8.88;;;3.33;;
47617;SDS011;33336;36.728;-4.414;2023-05-29T05:54:36;6.82;;;3.50;;
47617;SDS011;33336;36.728;-4.414;2023-05-29T05:59:40;9.75;;;3.20;;
47617;SDS011;33336;36.728;-4.414;2023-05-29T06:04:44;10.98;;;3.80;;
47617;SDS011;33336;36.728;-4.414;2023-05-29T06:09:48;10.13;;;3.70;;
47617;SDS011;33336;36.728;-4.414;2023-05-29T06:14:51;12.35;;;4.00;;
47617;SDS011;33336;36.728;-4.414;2023-05-29T06:19:55;8.98;;;3.45;;
47617;SDS011;33336;36.728;-4.414;2023-05-29T06:24:58;8.45;;;3.10;;
47617;SDS011;33336;36.728;-4.414;2023-05-29T06:30:02;11.73;;;3.55;;
47617;SDS011;33336;36.728;-4.414;2023-05-29T06:35:07;7.32;;;2.78;;
47617;SDS011;33336;36.728;-4.414;2023-05-29T06:40:14;10.63;;;3.38;;
47617;SDS011;33336;36.728;-4.414;2023-05-29T06:45:18;13.82;;;3.45;;
47617;SDS011;33336;36.728;-4.414;2023-05-29T06:50:22;11.98;;;3.58;;
47617;SDS011;33336;36.728;-4.414;2023-05-29T06:55:25;10.93;;;3.38;;
47617;SDS011;33336;36.728;-4.414;2023-05-29T07:00:29;11.60;;;3.22;;
47617;SDS011;33336;36.728;-4.414;2023-05-29T07:05:36;10.07;;;3.08;;
47617;SDS011;33336;36.728;-4.414;2023-05-29T07:15:42;12.10;;;3.28;;
47617;SDS011;33336;36.728;-4.414;2023-05-29T07:20:46;12.55;;;3.67;;
47617;SDS011;33336;36.728;-4.414;2023-05-29T07:25:51;9.70;;;3.67;;
47617;SDS011;33336;36.728;-4.414;2023-05-29T07:30:55;6.97;;;3.38;;
47617;SDS011;33336;36.728;-4.414;2023-05-29T07:35:59;11.43;;;3.55;;
47617;SDS011;33336;36.728;-4.414;2023-05-29T07:41:03;13.55;;;4.22;;
47617;SDS011;33336;36.728;-4.414;2023-05-29T07:46:05;10.77;;;3.47;;
47617;SDS011;33336;36.728;-4.414;2023-05-29T07:51:10;6.60;;;2.80;;
47617;SDS011;33336;36.728;-4.414;2023-05-29T07:56:13;11.18;;;2.80;;
47617;SDS011;33336;36.728;-4.414;2023-05-29T08:01:18;9.15;;;3.15;;
47617;SDS011;33336;36.728;-4.414;2023-05-29T08:06:23;9.38;;;2.85;;
47617;SDS011;33336;36.728;-4.414;2023-05-29T08:11:27;8.55;;;3.00;;
47617;SDS011;33336;36.728;-4.414;2023-05-29T08:16:29;9.50;;;3.28;;
47617;SDS011;33336;36.728;-4.414;2023-05-29T08:21:34;6.78;;;3.05;;
47617;SDS011;33336;36.728;-4.414;2023-05-29T08:26:38;7.68;;;3.42;;
47617;SDS011;33336;36.728;-4.414;2023-05-29T08:31:42;8.35;;;3.42;;
47617;SDS011;33336;36.728;-4.414;2023-05-29T08:36:46;5.20;;;3.20;;
47617;SDS011;33336;36.728;-4.414;2023-05-29T08:41:51;4.47;;;2.85;;
47617;SDS011;33336;36.728;-4.414;2023-05-29T08:47:02;6.63;;;2.67;;
47617;SDS011;33336;36.728;-4.414;2023-05-29T08:52:09;9.18;;;3.40;;
47617;SDS011;33336;36.728;-4.414;2023-05-29T08:57:13;8.00;;;3.90;;
47617;SDS011;33336;36.728;-4.414;2023-05-29T09:02:17;9.32;;;4.00;;
47617;SDS011;33336;36.728;-4.414;2023-05-29T09:07:22;5.00;;;3.30;;
47617;SDS011;33336;36.728;-4.414;2023-05-29T09:12:27;9.18;;;3.78;;
47617;SDS011;33336;36.728;-4.414;2023-05-29T09:17:30;8.60;;;3.40;;
47617;SDS011;33336;36.728;-4.414;2023-05-29T09:22:35;4.97;;;2.60;;
47617;SDS011;33336;36.728;-4.414;2023-05-29T09:27:38;6.05;;;3.35;;
47617;SDS011;33336;36.728;-4.414;2023-05-29T09:32:42;6.28;;;2.67;;
47617;SDS011;33336;36.728;-4.414;2023-05-29T09:37:46;8.55;;;3.42;;
47617;SDS011;33336;36.728;-4.414;2023-05-29T09:42:52;9.02;;;2.92;;
47617;SDS011;33336;36.728;-4.414;2023-05-29T09:47:55;5.72;;;2.58;;
47617;SDS011;33336;36.728;-4.414;2023-05-29T09:52:59;6.22;;;2.67;;
47617;SDS011;33336;36.728;-4.414;2023-05-29T09:58:04;9.45;;;3.03;;
47617;SDS011;33336;36.728;-4.414;2023-05-29T10:03:08;7.60;;;2.80;;
47617;SDS011;33336;36.728;-4.414;2023-05-29T10:08:13;5.90;;;2.50;;
47617;SDS011;33336;36.728;-4.414;2023-05-29T10:13:18;5.27;;;2.63;;
47617;SDS011;33336;36.728;-4.414;2023-05-29T10:18:23;6.55;;;2.42;;
47617;SDS011;33336;36.728;-4.414;2023-05-29T10:23:36;5.00;;;2.30;;
47617;SDS011;33336;36.728;-4.414;2023-05-29T10:28:41;8.30;;;2.37;;
47617;SDS011;33336;36.728;-4.414;2023-05-29T10:33:52;7.72;;;2.65;;
47617;SDS011;33336;36.728;-4.414;2023-05-29T10:39:06;5.03;;;2.75;;
47617;SDS011;33336;36.728;-4.414;2023-05-29T10:49:48;6.20;;;2.33;;
47617;SDS011;33336;36.728;-4.414;2023-05-29T10:54:54;7.00;;;2.78;;
47617;SDS011;33336;36.728;-4.414;2023-05-29T11:00:07;6.90;;;2.88;;
47617;SDS011;33336;36.728;-4.414;2023-05-29T11:05:21;4.75;;;2.63;;
47617;SDS011;33336;36.728;-4.414;2023-05-29T11:10:43;6.43;;;3.17;;
47617;SDS011;33336;36.728;-4.414;2023-05-29T11:15:48;3.92;;;2.42;;
47617;SDS011;33336;36.728;-4.414;2023-05-29T11:20:51;5.63;;;2.67;;
47617;SDS011;33336;36.728;-4.414;2023-05-29T11:26:00;5.32;;;2.95;;
47617;SDS011;33336;36.728;-4.414;2023-05-29T11:31:06;8.13;;;2.90;;
47617;SDS011;33336;36.728;-4.414;2023-05-29T11:36:11;9.15;;;2.90;;
47617;SDS011;33336;36.728;-4.414;2023-05-29T11:41:18;3.40;;;2.00;;
47617;SDS011;33336;36.728;-4.414;2023-05-29T11:46:21;7.30;;;2.65;;
47617;SDS011;33336;36.728;-4.414;2023-05-29T11:51:27;3.47;;;2.25;;
47617;SDS011;33336;36.728;-4.414;2023-05-29T11:56:31;6.93;;;2.15;;
47617;SDS011;33336;36.728;-4.414;2023-05-29T12:01:34;6.97;;;1.98;;
47617;SDS011;33336;36.728;-4.414;2023-05-29T12:06:37;5.53;;;1.88;;
47617;SDS011;33336;36.728;-4.414;2023-05-29T12:11:44;8.15;;;2.67;;
47617;SDS011;33336;36.728;-4.414;2023-05-29T12:16:47;10.50;;;3.25;;
47617;SDS011;33336;36.728;-4.414;2023-05-29T12:21:50;11.98;;;3.15;;
47617;SDS011;33336;36.728;-4.414;2023-05-29T12:26:55;10.05;;;4.03;;
47617;SDS011;33336;36.728;-4.414;2023-05-29T12:31:59;11.30;;;4.40;;
47617;SDS011;33336;36.728;-4.414;2023-05-29T12:37:06;16.88;;;4.07;;
47617;SDS011;33336;36.728;-4.414;2023-05-29T12:42:12;18.15;;;4.45;;
47617;SDS011;33336;36.728;-4.414;2023-05-29T12:47:23;21.10;;;3.78;;
47617;SDS011;33336;36.728;-4.414;2023-05-29T12:52:26;7.40;;;2.60;;
47617;SDS011;33336;36.728;-4.414;2023-05-29T12:57:30;9.48;;;2.85;;
47617;SDS011;33336;36.728;-4.414;2023-05-29T13:02:33;15.85;;;4.07;;
47617;SDS011;33336;36.728;-4.414;2023-05-29T13:07:35;12.43;;;3.72;;
47617;SDS011;33336;36.728;-4.414;2023-05-29T13:12:40;8.93;;;3.53;;
47617;SDS011;33336;36.728;-4.414;2023-05-29T13:17:43;12.23;;;4.40;;
47617;SDS011;33336;36.728;-4.414;2023-05-29T13:22:47;15.45;;;5.20;;
47617;SDS011;33336;36.728;-4.414;2023-05-29T13:27:52;12.05;;;4.55;;
47617;SDS011;33336;36.728;-4.414;2023-05-29T13:32:56;13.05;;;3.63;;
47617;SDS011;33336;36.728;-4.414;2023-05-29T13:37:58;10.68;;;3.78;;
47617;SDS011;33336;36.728;-4.414;2023-05-29T13:43:03;14.65;;;3.72;;
47617;SDS011;33336;36.728;-4.414;2023-05-29T13:48:06;12.15;;;3.58;;
47617;SDS011;33336;36.728;-4.414;2023-05-29T13:53:09;14.85;;;3.95;;
47617;SDS011;33336;36.728;-4.414;2023-05-29T13:58:14;15.93;;;4.43;;
47617;SDS011;33336;36.728;-4.414;2023-05-29T14:03:17;10.13;;;3.88;;
47617;SDS011;33336;36.728;-4.414;2023-05-29T14:08:22;13.57;;;3.85;;
47617;SDS011;33336;36.728;-4.414;2023-05-29T14:13:27;20.35;;;3.67;;
47617;SDS011;33336;36.728;-4.414;2023-05-29T14:18:30;17.23;;;4.03;;
47617;SDS011;33336;36.728;-4.414;2023-05-29T14:23:33;13.23;;;3.83;;
47617;SDS011;33336;36.728;-4.414;2023-05-29T14:28:38;12.00;;;3.30;;
47617;SDS011;33336;36.728;-4.414;2023-05-29T14:33:41;15.77;;;4.07;;
47617;SDS011;33336;36.728;-4.414;2023-05-29T14:38:44;13.38;;;4.20;;
47617;SDS011;33336;36.728;-4.414;2023-05-29T14:43:51;14.38;;;3.45;;
47617;SDS011;33336;36.728;-4.414;2023-05-29T14:48:59;12.73;;;4.07;;
47617;SDS011;33336;36.728;-4.414;2023-05-29T14:54:02;10.48;;;3.00;;
47617;SDS011;33336;36.728;-4.414;2023-05-29T14:59:06;14.25;;;3.60;;
47617;SDS011;33336;36.728;-4.414;2023-05-29T15:04:09;13.65;;;3.20;;
47617;SDS011;33336;36.728;-4.414;2023-05-29T15:09:12;12.20;;;3.90;;
47617;SDS011;33336;36.728;-4.414;2023-05-29T15:14:18;16.90;;;3.90;;
47617;SDS011;33336;36.728;-4.414;2023-05-29T15:19:22;20.42;;;3.30;;
47617;SDS011;33336;36.728;-4.414;2023-05-29T15:24:25;17.38;;;4.25;;
47617;SDS011;33336;36.728;-4.414;2023-05-29T15:29:31;20.88;;;4.30;;
47617;SDS011;33336;36.728;-4.414;2023-05-29T15:34:35;24.38;;;4.90;;
47617;SDS011;33336;36.728;-4.414;2023-05-29T15:39:41;16.58;;;3.47;;
47617;SDS011;33336;36.728;-4.414;2023-05-29T15:44:46;8.35;;;3.00;;
47617;SDS011;33336;36.728;-4.414;2023-05-29T15:49:49;8.27;;;3.80;;
47617;SDS011;33336;36.728;-4.414;2023-05-29T15:54:52;10.50;;;2.25;;
47617;SDS011;33336;36.728;-4.414;2023-05-29T15:59:57;22.15;;;5.07;;
47617;SDS011;33336;36.728;-4.414;2023-05-29T16:04:59;10.88;;;3.67;;
47617;SDS011;33336;36.728;-4.414;2023-05-29T16:10:02;15.13;;;3.85;;
47617;SDS011;33336;36.728;-4.414;2023-05-29T16:15:08;11.07;;;3.58;;
47617;SDS011;33336;36.728;-4.414;2023-05-29T16:20:11;19.02;;;4.35;;
47617;SDS011;33336;36.728;-4.414;2023-05-29T16:25:15;15.60;;;3.83;;
47617;SDS011;33336;36.728;-4.414;2023-05-29T16:30:20;17.05;;;3.67;;
47617;SDS011;33336;36.728;-4.414;2023-05-29T16:35:24;13.18;;;3.17;;
47617;SDS011;33336;36.728;-4.414;2023-05-29T16:40:27;11.10;;;3.88;;
47617;SDS011;33336;36.728;-4.414;2023-05-29T16:45:32;11.77;;;3.60;;
47617;SDS011;33336;36.728;-4.414;2023-05-29T16:50:35;9.48;;;2.70;;
47617;SDS011;33336;36.728;-4.414;2023-05-29T16:55:38;10.65;;;2.95;;
47617;SDS011;33336;36.728;-4.414;2023-05-29T17:00:43;9.98;;;2.58;;
47617;SDS011;33336;36.728;-4.414;2023-05-29T17:05:46;11.00;;;3.10;;
47617;SDS011;33336;36.728;-4.414;2023-05-29T17:10:50;10.52;;;3.60;;
47617;SDS011;33336;36.728;-4.414;2023-05-29T17:15:55;12.35;;;3.65;;
47617;SDS011;33336;36.728;-4.414;2023-05-29T17:20:58;14.88;;;3.92;;
47617;SDS011;33336;36.728;-4.414;2023-05-29T17:26:00;10.23;;;3.42;;
47617;SDS011;33336;36.728;-4.414;2023-05-29T17:31:05;8.50;;;3.05;;
47617;SDS011;33336;36.728;-4.414;2023-05-29T17:36:09;12.30;;;3.50;;
47617;SDS011;33336;36.728;-4.414;2023-05-29T17:41:12;15.70;;;4.15;;
47617;SDS011;33336;36.728;-4.414;2023-05-29T17:46:17;10.25;;;3.63;;
47617;SDS011;33336;36.728;-4.414;2023-05-29T17:51:20;13.32;;;3.67;;
47617;SDS011;33336;36.728;-4.414;2023-05-29T17:56:25;10.48;;;3.40;;
47617;SDS011;33336;36.728;-4.414;2023-05-29T18:01:30;10.30;;;3.38;;
47617;SDS011;33336;36.728;-4.414;2023-05-29T18:06:33;15.75;;;4.75;;
47617;SDS011;33336;36.728;-4.414;2023-05-29T18:11:35;14.45;;;4.32;;
47617;SDS011;33336;36.728;-4.414;2023-05-29T18:16:43;9.88;;;3.92;;
47617;SDS011;33336;36.728;-4.414;2023-05-29T18:21:46;15.45;;;3.60;;
47617;SDS011;33336;36.728;-4.414;2023-05-29T18:26:49;14.05;;;3.97;;
47617;SDS011;33336;36.728;-4.414;2023-05-29T18:31:54;11.02;;;3.92;;
47617;SDS011;33336;36.728;-4.414;2023-05-29T18:36:57;12.82;;;3.15;;
47617;SDS011;33336;36.728;-4.414;2023-05-29T18:41:59;12.82;;;3.75;;
47617;SDS011;33336;36.728;-4.414;2023-05-29T18:47:05;14.77;;;4.40;;
47617;SDS011;33336;36.728;-4.414;2023-05-29T18:52:08;15.38;;;3.65;;
47617;SDS011;33336;36.728;-4.414;2023-05-29T18:57:11;13.57;;;4.40;;
47617;SDS011;33336;36.728;-4.414;2023-05-29T19:02:16;13.82;;;4.03;;
47617;SDS011;33336;36.728;-4.414;2023-05-29T19:07:18;13.45;;;4.40;;
47617;SDS011;33336;36.728;-4.414;2023-05-29T19:12:21;13.95;;;4.32;;
47617;SDS011;33336;36.728;-4.414;2023-05-29T19:17:26;16.80;;;4.00;;
47617;SDS011;33336;36.728;-4.414;2023-05-29T19:22:29;14.73;;;4.45;;
47617;SDS011;33336;36.728;-4.414;2023-05-29T19:27:31;8.90;;;3.33;;
47617;SDS011;33336;36.728;-4.414;2023-05-29T19:32:36;72.85;;;9.95;;
47617;SDS011;33336;36.728;-4.414;2023-05-29T19:37:39;18.30;;;6.53;;
47617;SDS011;33336;36.728;-4.414;2023-05-29T19:42:42;26.38;;;5.82;;
47617;SDS011;33336;36.728;-4.414;2023-05-29T19:47:47;10.77;;;3.50;;
47617;SDS011;33336;36.728;-4.414;2023-05-29T19:52:50;11.70;;;3.00;;
47617;SDS011;33336;36.728;-4.414;2023-05-29T19:57:53;6.82;;;2.10;;
47617;SDS011;33336;36.728;-4.414;2023-05-29T20:02:57;4.82;;;2.50;;
47617;SDS011;33336;36.728;-4.414;2023-05-29T20:08:00;5.22;;;2.20;;
47617;SDS011;33336;36.728;-4.414;2023-05-29T20:13:03;8.77;;;2.00;;
47617;SDS011;33336;36.728;-4.414;2023-05-29T20:18:08;3.55;;;1.42;;
47617;SDS011;33336;36.728;-4.414;2023-05-29T20:23:10;5.45;;;2.13;;
47617;SDS011;33336;36.728;-4.414;2023-05-29T20:28:13;5.60;;;1.75;;
47617;SDS011;33336;36.728;-4.414;2023-05-29T20:33:18;6.35;;;2.20;;
47617;SDS011;33336;36.728;-4.414;2023-05-29T20:38:21;4.15;;;2.53;;
47617;SDS011;33336;36.728;-4.414;2023-05-29T20:43:24;4.97;;;3.08;;
47617;SDS011;33336;36.728;-4.414;2023-05-29T20:48:32;8.75;;;3.15;;
47617;SDS011;33336;36.728;-4.414;2023-05-29T20:53:35;6.38;;;2.30;;
47617;SDS011;33336;36.728;-4.414;2023-05-29T20:58:38;4.72;;;2.25;;
47617;SDS011;33336;36.728;-4.414;2023-05-29T21:03:43;4.72;;;2.28;;
47617;SDS011;33336;36.728;-4.414;2023-05-29T21:08:46;5.28;;;1.85;;
47617;SDS011;33336;36.728;-4.414;2023-05-29T21:13:49;3.72;;;2.25;;
47617;SDS011;33336;36.728;-4.414;2023-05-29T21:18:58;3.63;;;1.95;;
47617;SDS011;33336;36.728;-4.414;2023-05-29T21:24:00;5.95;;;2.10;;
47617;SDS011;33336;36.728;-4.414;2023-05-29T21:29:11;3.92;;;1.63;;
47617;SDS011;33336;36.728;-4.414;2023-05-29T21:34:16;4.18;;;2.00;;
47617;SDS011;33336;36.728;-4.414;2023-05-29T21:39:19;4.68;;;2.33;;
47617;SDS011;33336;36.728;-4.414;2023-05-29T21:44:22;4.25;;;2.20;;
47617;SDS011;33336;36.728;-4.414;2023-05-29T21:49:29;6.05;;;2.15;;
47617;SDS011;33336;36.728;-4.414;2023-05-29T21:54:32;4.20;;;1.60;;
47617;SDS011;33336;36.728;-4.414;2023-05-29T21:59:35;5.13;;;1.92;;
47617;SDS011;33336;36.728;-4.414;2023-05-29T22:04:42;4.53;;;1.77;;
47617;SDS011;33336;36.728;-4.414;2023-05-29T22:09:51;6.55;;;2.08;;
47617;SDS011;33336;36.728;-4.414;2023-05-29T22:14:54;4.05;;;1.98;;
47617;SDS011;33336;36.728;-4.414;2023-05-29T22:19:58;4.15;;;1.85;;
47617;SDS011;33336;36.728;-4.414;2023-05-29T22:30:35;5.15;;;2.08;;
47617;SDS011;33336;36.728;-4.414;2023-05-29T22:35:41;6.50;;;2.17;;
47617;SDS011;33336;36.728;-4.414;2023-05-29T22:40:44;2.63;;;1.70;;
47617;SDS011;33336;36.728;-4.414;2023-05-29T22:45:47;7.72;;;2.40;;
47617;SDS011;33336;36.728;-4.414;2023-05-29T22:50:52;6.25;;;2.40;;
47617;SDS011;33336;36.728;-4.414;2023-05-29T22:55:56;3.80;;;1.90;;
47617;SDS011;33336;36.728;-4.414;2023-05-29T23:00:59;6.70;;;2.28;;
47617;SDS011;33336;36.728;-4.414;2023-05-29T23:06:04;3.92;;;1.80;;
47617;SDS011;33336;36.728;-4.414;2023-05-29T23:11:09;6.00;;;2.33;;
47617;SDS011;33336;36.728;-4.414;2023-05-29T23:16:12;8.10;;;1.90;;
47617;SDS011;33336;36.728;-4.414;2023-05-29T23:21:18;3.88;;;2.03;;
47617;SDS011;33336;36.728;-4.414;2023-05-29T23:26:23;6.03;;;2.28;;
47617;SDS011;33336;36.728;-4.414;2023-05-29T23:31:26;6.05;;;2.38;;
47617;SDS011;33336;36.728;-4.414;2023-05-29T23:36:32;6.53;;;1.95;;
47617;SDS011;33336;36.728;-4.414;2023-05-29T23:41:34;6.50;;;1.98;;
47617;SDS011;33336;36.728;-4.414;2023-05-29T23:46:41;7.55;;;2.35;;
47617;SDS011;33336;36.728;-4.414;2023-05-29T23:51:45;5.07;;;1.70;;
47617;SDS011;33336;36.728;-4.414;2023-05-29T23:56:49;7.40;;;2.50;;
